Time;durP1;ratioP1;P1;durP2;ratioP2;P2;SDS_P1;SDS_P2;PMS_P1;PMS_P2;Temp;Humidity;BMP_temperature;BMP_pressure;BME280_temperature;BME280_humidity;BME280_pressure;Samples;Min_cycle;Max_cycle;Signal;HPM_P1;HPM_P2
2022/09/07 00:00:10;;;;;;;5.43;1.57;;;;;;;17.88;100.00;100655.09;693760;28;1360;-63
2022/09/07 00:00:30;;;;;;;6.32;1.73;;;;;;;17.89;100.00;100655.97;693645;28;1161;-61
2022/09/07 00:00:52;;;;;;;6.68;1.67;;;;;;;17.93;100.00;100657.63;694649;28;4345;-60
2022/09/07 00:01:12;;;;;;;5.82;1.70;;;;;;;17.89;100.00;100663.91;695168;28;1242;-62
2022/09/07 00:01:33;;;;;;;5.47;1.60;;;;;;;17.82;100.00;100657.09;696121;28;1244;-61
2022/09/07 00:01:53;;;;;;;5.33;1.40;;;;;;;17.75;100.00;100661.75;698836;28;1245;-61
2022/09/07 00:02:14;;;;;;;6.10;1.65;;;;;;;17.76;100.00;100660.81;698601;28;1280;-62
2022/09/07 00:02:34;;;;;;;6.07;1.70;;;;;;;17.71;100.00;100660.13;698506;28;1071;-61
2022/09/07 00:02:55;;;;;;;5.45;1.70;;;;;;;17.62;100.00;100669.22;697385;28;1245;-60
2022/09/07 00:03:15;;;;;;;4.47;1.70;;;;;;;17.50;100.00;100669.63;697009;28;1114;-60
2022/09/07 00:03:36;;;;;;;5.95;1.85;;;;;;;17.42;100.00;100675.19;699183;28;1257;-60
2022/09/07 00:03:56;;;;;;;5.87;1.80;;;;;;;17.50;100.00;100677.56;698984;28;4354;-59
2022/09/07 00:04:17;;;;;;;6.18;1.70;;;;;;;17.61;100.00;100672.81;699801;28;1165;-61
2022/09/07 00:04:38;;;;;;;4.60;1.63;;;;;;;17.65;100.00;100671.78;700021;28;1309;-61
2022/09/07 00:04:58;;;;;;;4.70;1.63;;;;;;;17.62;100.00;100671.00;696937;28;1262;-61
2022/09/07 00:05:19;;;;;;;5.53;1.70;;;;;;;17.54;100.00;100673.91;696308;28;1213;-60
2022/09/07 00:05:43;;;;;;;5.17;1.90;;;;;;;17.47;100.00;100675.03;690095;28;1148;-60
2022/09/07 00:06:07;;;;;;;6.40;1.83;;;;;;;17.48;100.00;100677.63;690718;28;1278;-60
2022/09/07 00:06:28;;;;;;;6.78;1.90;;;;;;;17.63;100.00;100678.88;690749;28;1238;-60
2022/09/07 00:06:48;;;;;;;8.10;1.90;;;;;;;17.75;100.00;100687.31;691653;28;4449;-60
2022/09/07 00:07:09;;;;;;;5.20;1.70;;;;;;;17.86;100.00;100687.78;690441;28;1313;-60
2022/09/07 00:07:29;;;;;;;4.05;1.58;;;;;;;18.01;100.00;100691.72;689033;28;1100;-61
2022/09/07 00:07:50;;;;;;;4.17;1.50;;;;;;;18.03;100.00;100692.56;689678;28;1159;-61
2022/09/07 00:08:11;;;;;;;3.72;1.58;;;;;;;17.90;100.00;100684.13;687537;28;1274;-61
2022/09/07 00:08:31;;;;;;;4.40;1.60;;;;;;;17.76;100.00;100689.03;688285;28;1350;-60
2022/09/07 00:08:52;;;;;;;6.57;2.05;;;;;;;17.62;100.00;100687.72;688570;28;1263;-60
2022/09/07 00:09:12;;;;;;;6.33;2.17;;;;;;;17.53;100.00;100683.63;690752;28;1202;-59
2022/09/07 00:09:33;;;;;;;4.90;1.80;;;;;;;17.46;100.00;100678.56;692915;28;1554;-58
2022/09/07 00:09:53;;;;;;;5.35;1.80;;;;;;;17.38;100.00;100684.13;694826;28;4308;-60
2022/09/07 00:10:14;;;;;;;5.57;1.80;;;;;;;17.48;100.00;100682.06;700305;28;1236;-61
2022/09/07 00:10:35;;;;;;;5.28;1.75;;;;;;;17.56;100.00;100682.66;700368;28;1364;-60
2022/09/07 00:10:58;;;;;;;5.75;1.63;;;;;;;17.63;100.00;100688.59;696575;28;1473;-60
2022/09/07 00:11:19;;;;;;;6.13;1.80;;;;;;;17.75;100.00;100689.94;696219;28;1217;-60
2022/09/07 00:11:39;;;;;;;6.80;2.00;;;;;;;17.85;100.00;100686.09;694394;28;1311;-60
2022/09/07 00:11:59;;;;;;;5.80;1.80;;;;;;;17.97;100.00;100685.69;691154;28;1475;-61
2022/09/07 00:12:20;;;;;;;5.65;1.58;;;;;;;18.07;100.00;100682.72;688437;28;1409;-60
2022/09/07 00:12:40;;;;;;;6.57;1.70;;;;;;;17.98;100.00;100684.75;688275;28;5087;-61
2022/09/07 00:13:01;;;;;;;6.05;1.80;;;;;;;17.84;100.00;100687.00;691152;28;1436;-60
2022/09/07 00:13:23;;;;;;;7.77;1.90;;;;;;;17.70;100.00;100680.41;690903;28;1422;-61
2022/09/07 00:13:45;;;;;;;6.03;1.90;;;;;;;17.74;100.00;100685.59;691099;28;1213;-61
2022/09/07 00:14:06;;;;;;;4.72;1.60;;;;;;;17.65;100.00;100682.34;695044;28;1282;-60
2022/09/07 00:14:26;;;;;;;6.57;1.98;;;;;;;17.53;100.00;100678.34;696405;28;1145;-60
2022/09/07 00:14:47;;;;;;;6.07;2.00;;;;;;;17.51;100.00;100676.66;694327;28;1167;-58
2022/09/07 00:15:10;;;;;;;5.75;1.70;;;;;;;17.61;100.00;100675.44;693579;28;1460;-60
2022/09/07 00:15:30;;;;;;;5.63;2.10;;;;;;;17.73;100.00;100678.59;693504;28;1313;-60
2022/09/07 00:15:51;;;;;;;5.40;2.37;;;;;;;17.90;100.00;100675.34;694848;28;4731;-60
2022/09/07 00:16:16;;;;;;;5.30;2.37;;;;;;;17.96;100.00;100681.31;694675;28;1474;-59
2022/09/07 00:16:37;;;;;;;6.32;1.98;;;;;;;18.02;100.00;100681.09;697362;28;1424;-60
2022/09/07 00:16:57;;;;;;;7.18;2.00;;;;;;;18.10;100.00;100687.91;697741;28;1281;-61
2022/09/07 00:17:18;;;;;;;7.27;2.10;;;;;;;18.02;100.00;100681.09;698141;28;1299;-60
2022/09/07 00:17:38;;;;;;;5.60;1.90;;;;;;;18.00;100.00;100682.94;700852;28;1465;-61
2022/09/07 00:17:59;;;;;;;5.37;2.00;;;;;;;18.13;100.00;100687.78;696732;28;1391;-59
2022/09/07 00:18:19;;;;;;;7.07;2.50;;;;;;;18.04;100.00;100686.31;696911;28;1455;-61
2022/09/07 00:18:40;;;;;;;7.60;2.63;;;;;;;18.10;100.00;100677.34;695892;28;4292;-60
2022/09/07 00:19:03;;;;;;;6.43;2.20;;;;;;;18.18;100.00;100675.28;696654;28;1459;-60
2022/09/07 00:19:26;;;;;;;6.68;2.00;;;;;;;18.11;100.00;100679.03;692957;28;1319;-60
2022/09/07 00:19:47;;;;;;;4.50;2.00;;;;;;;18.03;100.00;100677.53;694117;28;1376;-59
2022/09/07 00:20:09;;;;;;;5.15;1.83;;;;;;;17.97;100.00;100677.75;692640;28;1284;-61
2022/09/07 00:20:29;;;;;;;6.25;2.20;;;;;;;17.89;100.00;100685.06;693163;28;1322;-61
2022/09/07 00:21:01;;;;;;;5.73;2.00;;;;;;;17.86;100.00;100690.44;691249;28;1424;-58
2022/09/07 00:21:23;;;;;;;5.13;1.88;;;;;;;17.88;100.00;100693.91;693247;28;1481;-60
2022/09/07 00:21:44;;;;;;;5.45;2.05;;;;;;;17.91;100.00;100695.59;694563;28;4345;-60
2022/09/07 00:22:04;;;;;;;6.10;2.20;;;;;;;17.88;100.00;100696.56;696319;28;1573;-58
2022/09/07 00:22:24;;;;;;;5.70;2.17;;;;;;;17.83;100.00;100695.84;692596;28;1238;-60
2022/09/07 00:22:45;;;;;;;4.60;2.20;;;;;;;17.85;100.00;100696.69;697569;28;1304;-60
2022/09/07 00:23:05;;;;;;;7.27;2.40;;;;;;;17.81;100.00;100697.69;692910;28;1315;-59
2022/09/07 00:23:28;;;;;;;6.28;2.15;;;;;;;17.77;100.00;100693.44;687602;28;1965;-60
2022/09/07 00:23:49;;;;;;;5.90;2.30;;;;;;;17.70;100.00;100690.97;688280;28;1406;-60
2022/09/07 00:24:10;;;;;;;5.85;2.38;;;;;;;17.73;100.00;100690.00;688208;28;1275;-60
2022/09/07 00:24:30;;;;;;;6.27;2.23;;;;;;;17.82;100.00;100683.53;688598;28;1295;-60
2022/09/07 00:24:51;;;;;;;6.65;2.50;;;;;;;17.82;100.00;100688.81;690567;28;4403;-59
2022/09/07 00:25:12;;;;;;;6.07;2.30;;;;;;;17.91;100.00;100692.94;691091;28;1243;-61
2022/09/07 00:25:37;;;;;;;5.75;2.20;;;;;;;17.87;100.00;100693.06;688481;28;1597;-59
2022/09/07 00:26:03;;;;;;;6.30;2.35;;;;;;;17.78;100.00;100687.22;687443;28;1441;-59
2022/09/07 00:26:27;;;;;;;6.18;2.47;;;;;;;17.95;100.00;100679.59;691858;28;1130;-59
2022/09/07 00:26:48;;;;;;;5.82;2.45;;;;;;;17.92;100.00;100677.06;694250;28;1190;-59
2022/09/07 00:27:10;;;;;;;6.53;2.30;;;;;;;17.82;100.00;100684.41;696145;28;1383;-60
2022/09/07 00:27:30;;;;;;;6.43;2.45;;;;;;;17.94;100.00;100684.94;696518;28;1240;-60
2022/09/07 00:27:51;;;;;;;6.80;2.42;;;;;;;17.86;100.00;100686.03;696326;28;4452;-59
2022/09/07 00:28:11;;;;;;;7.82;2.50;;;;;;;17.95;100.00;100679.59;697041;28;1294;-61
2022/09/07 00:28:32;;;;;;;5.60;2.37;;;;;;;18.00;100.00;100677.66;694620;28;1281;-60
2022/09/07 00:28:59;;;;;;;5.72;2.50;;;;;;;17.90;100.00;100681.50;694898;28;1356;-59
2022/09/07 00:29:20;;;;;;;5.65;2.22;;;;;;;17.91;100.00;100677.97;695762;28;1242;-60
2022/09/07 00:29:40;;;;;;;5.67;2.30;;;;;;;17.83;100.00;100675.56;698667;28;1490;-59
2022/09/07 00:30:00;;;;;;;6.75;2.42;;;;;;;17.67;100.00;100669.94;698342;28;1384;-60
2022/09/07 00:30:21;;;;;;;7.57;2.63;;;;;;;17.57;100.00;100667.66;697862;28;1420;-60
2022/09/07 00:30:42;;;;;;;6.90;2.60;;;;;;;17.49;100.00;100668.78;694898;28;4277;-61
2022/09/07 00:31:04;;;;;;;6.35;2.67;;;;;;;17.50;100.00;100667.88;696119;28;1557;-60
2022/09/07 00:31:25;;;;;;;8.02;2.90;;;;;;;17.39;100.00;100662.09;695807;28;1129;-59
2022/09/07 00:31:45;;;;;;;9.63;3.22;;;;;;;17.29;100.00;100658.88;696717;28;1312;-61
2022/09/07 00:32:05;;;;;;;7.33;2.93;;;;;;;17.25;100.00;100651.09;694358;28;1207;-61
2022/09/07 00:32:26;;;;;;;8.43;2.90;;;;;;;17.23;100.00;100658.22;688178;28;1220;-61
2022/09/07 00:32:46;;;;;;;7.07;2.80;;;;;;;17.19;100.00;100657.44;690921;28;1938;-59
2022/09/07 00:33:07;;;;;;;5.80;2.70;;;;;;;17.20;100.00;100653.91;691676;28;1239;-61
2022/09/07 00:33:28;;;;;;;8.32;3.00;;;;;;;17.26;100.00;100653.69;692006;28;932;-59
2022/09/07 00:33:50;;;;;;;7.20;2.88;;;;;;;17.34;100.00;100653.44;690819;28;4494;-60
2022/09/07 00:34:11;;;;;;;7.30;2.65;;;;;;;17.42;100.00;100658.47;693931;28;1056;-61
2022/09/07 00:34:31;;;;;;;8.18;2.72;;;;;;;17.46;100.00;100649.50;694393;28;1448;-60
2022/09/07 00:34:52;;;;;;;5.85;2.60;;;;;;;17.52;100.00;100655.47;694346;28;1313;-59
2022/09/07 00:35:12;;;;;;;8.63;2.70;;;;;;;17.58;100.00;100649.09;693691;28;1396;-59
2022/09/07 00:35:32;;;;;;;8.17;2.80;;;;;;;17.56;100.00;100648.31;694539;28;1519;-60
2022/09/07 00:35:53;;;;;;;5.87;2.60;;;;;;;17.57;100.00;100642.09;694685;28;1304;-60
2022/09/07 00:36:18;;;;;;;6.68;2.70;;;;;;;17.53;100.00;100645.78;692288;28;963;-60
2022/09/07 00:36:39;;;;;;;7.07;2.75;;;;;;;17.48;100.00;100647.69;692534;28;4908;-58
2022/09/07 00:36:59;;;;;;;7.33;2.90;;;;;;;17.41;100.00;100647.03;693745;28;1349;-61
2022/09/07 00:37:20;;;;;;;7.03;2.80;;;;;;;17.31;100.00;100641.19;696835;28;1518;-61
2022/09/07 00:37:40;;;;;;;9.23;2.83;;;;;;;17.22;100.00;100638.84;697326;28;1412;-61
2022/09/07 00:38:03;;;;;;;8.73;2.85;;;;;;;17.15;100.00;100639.97;696132;28;1540;-61
2022/09/07 00:38:23;;;;;;;9.68;3.22;;;;;;;17.10;100.00;100639.25;696447;28;1149;-60
2022/09/07 00:38:44;;;;;;;8.73;3.20;;;;;;;17.06;100.00;100634.97;696480;28;1228;-60
2022/09/07 00:39:05;;;;;;;7.80;2.72;;;;;;;17.06;100.00;100627.06;693686;28;1386;-60
2022/09/07 00:39:25;;;;;;;8.73;3.17;;;;;;;17.07;100.00;100628.78;695179;28;1229;-62
2022/09/07 00:39:46;;;;;;;7.55;3.15;;;;;;;17.07;100.00;100626.13;693918;28;4424;-62
2022/09/07 00:40:07;;;;;;;8.23;3.40;;;;;;;17.06;100.00;100625.28;695978;28;1067;-59
2022/09/07 00:40:27;;;;;;;8.18;3.08;;;;;;;17.06;100.00;100625.28;694117;28;1157;-61
2022/09/07 00:40:47;;;;;;;7.53;3.08;;;;;;;17.08;100.00;100619.97;695135;28;1290;-61
2022/09/07 00:41:09;;;;;;;8.00;3.17;;;;;;;17.12;100.00;100619.78;696517;28;1153;-60
2022/09/07 00:41:29;;;;;;;8.55;3.40;;;;;;;17.19;100.00;100615.19;694924;28;1661;-59
2022/09/07 00:41:50;;;;;;;7.57;3.00;;;;;;;17.30;100.00;100602.47;695377;28;1337;-61
2022/09/07 00:42:10;;;;;;;6.43;2.83;;;;;;;17.40;100.00;100602.16;693798;28;1182;-60
2022/09/07 00:42:30;;;;;;;6.57;2.80;;;;;;;17.41;100.00;100604.75;695989;28;1429;-60
2022/09/07 00:42:51;;;;;;;7.13;2.92;;;;;;;17.47;100.00;100595.75;693747;28;4291;-60
2022/09/07 00:43:31;;;;;;;9.77;3.30;;;;;;;17.49;100.00;100593.94;694830;28;899;-60
2022/09/07 00:43:55;;;;;;;7.10;3.03;;;;;;;17.44;100.00;100596.72;697053;28;1301;-60
2022/09/07 00:44:53;;;;;;;7.82;3.28;;;;;;;17.42;100.00;100593.28;695710;28;1400;-61
2022/09/07 00:45:17;;;;;;;6.43;3.20;;;;;;;17.38;100.00;100590.78;693268;28;1130;-62
2022/09/07 00:45:37;;;;;;;6.93;3.25;;;;;;;17.35;100.00;100597.91;692612;28;5184;-61
2022/09/07 00:45:58;;;;;;;7.03;3.40;;;;;;;17.38;100.00;100598.69;697555;28;1579;-60
2022/09/07 00:46:25;;;;;;;8.13;4.10;;;;;;;17.38;100.00;100590.78;697097;28;1308;-60
2022/09/07 00:46:45;;;;;;;8.15;3.58;;;;;;;17.33;100.00;100591.81;697695;28;1321;-62
2022/09/07 00:47:14;;;;;;;7.20;3.30;;;;;;;17.38;100.00;100594.28;694946;28;1385;-60
2022/09/07 00:47:50;;;;;;;8.65;3.42;;;;;;;17.39;100.00;100595.16;697296;28;1428;-60
2022/09/07 00:48:17;;;;;;;8.85;3.50;;;;;;;17.45;100.00;100597.59;697167;28;1143;-60
2022/09/07 00:48:44;;;;;;;7.63;3.30;;;;;;;17.55;100.00;100595.50;699029;28;1883;-62
2022/09/07 00:49:14;;;;;;;7.68;3.58;;;;;;;17.56;100.00;100590.16;697680;28;4977;-61
2022/09/07 00:49:36;;;;;;;6.50;3.15;;;;;;;17.51;100.00;100589.44;699459;28;1495;-60
2022/09/07 00:50:01;;;;;;;6.45;3.22;;;;;;;17.56;100.00;100587.50;696660;28;1724;-60
2022/09/07 00:50:31;;;;;;;7.00;3.35;;;;;;;17.52;100.00;100580.59;697031;28;1333;-61
2022/09/07 00:50:57;;;;;;;7.43;3.83;;;;;;;17.42;100.00;100574.78;696691;28;1203;-59
2022/09/07 00:51:26;;;;;;;7.63;3.60;;;;;;;17.38;100.00;100583.72;696983;28;1356;-59
2022/09/07 00:51:54;;;;;;;6.75;3.30;;;;;;;17.53;100.00;100577.91;697564;28;4499;-60
2022/09/07 00:52:18;;;;;;;5.38;3.10;;;;;;;17.73;100.00;100580.75;698663;28;1135;-60
2022/09/07 00:52:40;;;;;;;6.50;3.15;;;;;;;17.80;100.00;100575.19;698025;28;1984;-59
2022/09/07 00:53:22;;;;;;;8.23;3.50;;;;;;;17.65;100.00;100576.63;699091;28;1799;-60
2022/09/07 00:53:48;;;;;;;6.53;3.40;;;;;;;17.60;100.00;100572.38;701110;28;1491;-59
2022/09/07 00:54:13;;;;;;;7.05;3.50;;;;;;;17.54;100.00;100560.25;699984;28;2231;-60
2022/09/07 00:54:45;;;;;;;6.25;3.50;;;;;;;17.63;100.00;100561.72;699383;28;1281;-60
2022/09/07 00:55:10;;;;;;;7.00;3.58;;;;;;;17.76;100.00;100556.84;696272;28;5160;-60
2022/09/07 00:55:33;;;;;;;6.32;3.28;;;;;;;17.69;100.00;100561.50;693463;28;1206;-60
2022/09/07 00:55:55;;;;;;;6.35;2.83;;;;;;;17.78;100.00;100555.03;693376;28;1187;-59
2022/09/07 00:56:15;;;;;;;6.05;2.97;;;;;;;17.74;100.00;100548.13;694194;28;1394;-61
2022/09/07 00:56:40;;;;;;;7.03;3.35;;;;;;;17.69;100.00;100556.22;693932;28;1473;-61
2022/09/07 00:57:00;;;;;;;6.88;3.35;;;;;;;17.64;100.00;100561.66;692537;28;1572;-61
2022/09/07 00:57:21;;;;;;;7.97;3.13;;;;;;;17.69;100.00;100557.09;694163;28;1518;-59
2022/09/07 00:57:46;;;;;;;8.50;3.27;;;;;;;17.65;100.00;100558.13;692882;28;4413;-60
2022/09/07 00:58:08;;;;;;;6.57;3.00;;;;;;;17.55;100.00;100559.34;693047;28;1155;-60
2022/09/07 00:58:29;;;;;;;7.10;3.17;;;;;;;17.50;100.00;100558.63;691450;28;1418;-59
2022/09/07 00:58:51;;;;;;;7.32;3.65;;;;;;;17.40;100.00;100554.59;694049;28;1174;-59
2022/09/07 00:59:18;;;;;;;5.97;3.40;;;;;;;17.33;100.00;100554.84;695203;28;1135;-59
2022/09/07 00:59:42;;;;;;;6.53;3.20;;;;;;;17.42;100.00;100558.03;693688;28;1385;-59
2022/09/07 01:00:03;;;;;;;4.93;2.80;;;;;;;17.48;100.00;100560.47;693543;28;1266;-61
2022/09/07 01:00:24;;;;;;;6.05;3.22;;;;;;;17.43;100.00;100551.84;695635;28;1188;-59
2022/09/07 01:00:46;;;;;;;7.55;3.40;;;;;;;17.35;100.00;100558.28;693291;28;4488;-60
2022/09/07 01:01:08;;;;;;;7.43;3.50;;;;;;;17.28;100.00;100554.13;691262;28;1363;-60
2022/09/07 01:01:30;;;;;;;6.65;3.30;;;;;;;17.17;100.00;100548.34;692109;28;1268;-58
2022/09/07 01:01:50;;;;;;;6.32;3.20;;;;;;;17.10;100.00;100555.59;691990;28;1439;-60
2022/09/07 01:02:13;;;;;;;7.82;3.58;;;;;;;17.05;100.00;100554.03;691106;28;1138;-59
2022/09/07 01:02:33;;;;;;;6.45;3.10;;;;;;;17.04;100.00;100545.22;689020;28;1281;-60
2022/09/07 01:02:56;;;;;;;5.20;2.90;;;;;;;17.09;100.00;100543.31;687259;28;1255;-59
2022/09/07 01:03:29;;;;;;;5.55;3.28;;;;;;;17.19;100.00;100538.56;688375;28;1329;-59
2022/09/07 01:03:54;;;;;;;5.93;3.10;;;;;;;17.18;100.00;100535.09;690028;28;4298;-58
2022/09/07 01:04:15;;;;;;;8.10;3.35;;;;;;;17.19;100.00;100530.66;688020;28;1460;-61
2022/09/07 01:04:37;;;;;;;6.65;3.25;;;;;;;17.30;100.00;100528.50;692292;28;1235;-59
2022/09/07 01:05:09;;;;;;;6.53;3.38;;;;;;;17.40;100.00;100531.69;694627;28;1304;-59
2022/09/07 01:05:56;;;;;;;5.82;3.15;;;;;;;17.33;100.00;100531.06;694205;28;1273;-60
2022/09/07 01:06:24;;;;;;;6.50;3.25;;;;;;;17.40;100.00;100528.19;696225;28;1396;-59
2022/09/07 01:06:44;;;;;;;5.30;3.30;;;;;;;17.38;100.00;100525.59;696790;28;4473;-59
2022/09/07 01:07:05;;;;;;;6.88;3.13;;;;;;;17.50;100.00;100526.91;697070;28;1201;-60
2022/09/07 01:07:25;;;;;;;8.17;3.13;;;;;;;17.60;100.00;100523.06;697817;28;1118;-59
2022/09/07 01:07:46;;;;;;;6.75;3.22;;;;;;;17.61;100.00;100524.78;697583;28;985;-59
2022/09/07 01:08:08;;;;;;;5.60;3.20;;;;;;;17.48;100.00;100531.41;694561;28;1242;-61
2022/09/07 01:08:29;;;;;;;6.47;3.10;;;;;;;17.46;100.00;100522.66;697136;28;1487;-59
2022/09/07 01:08:49;;;;;;;8.10;3.30;;;;;;;17.46;100.00;100527.94;696885;28;1143;-60
2022/09/07 01:09:13;;;;;;;7.88;3.60;;;;;;;17.43;100.00;100522.78;698212;28;1479;-60
2022/09/07 01:09:34;;;;;;;5.60;3.33;;;;;;;17.39;100.00;100521.16;696131;28;1460;-59
2022/09/07 01:09:59;;;;;;;6.00;3.05;;;;;;;17.42;100.00;100528.97;695400;28;4251;-60
2022/09/07 01:10:22;;;;;;;6.05;3.28;;;;;;;17.42;100.00;100521.03;700402;28;1457;-59
2022/09/07 01:10:45;;;;;;;7.55;3.40;;;;;;;17.41;100.00;100529.91;699665;28;1511;-60
2022/09/07 01:11:06;;;;;;;7.25;3.40;;;;;;;17.45;100.00;100526.25;698531;28;1451;-60
2022/09/07 01:11:27;;;;;;;5.80;3.30;;;;;;;17.44;100.00;100529.81;696997;28;1250;-60
2022/09/07 01:11:49;;;;;;;6.30;3.00;;;;;;;17.44;100.00;100528.00;696319;28;1153;-60
2022/09/07 01:12:10;;;;;;;6.40;2.80;;;;;;;17.45;100.00;100526.25;697261;28;1182;-60
2022/09/07 01:12:30;;;;;;;5.10;2.70;;;;;;;17.48;100.00;100521.69;695903;28;3410;-61
2022/09/07 01:12:51;;;;;;;4.53;2.70;;;;;;;17.53;100.00;100522.41;696619;28;4489;-60
2022/09/07 01:13:11;;;;;;;5.07;2.97;;;;;;;17.49;100.00;100525.22;697309;28;1559;-61
2022/09/07 01:13:32;;;;;;;6.07;3.15;;;;;;;17.47;100.00;100527.94;695668;28;1286;-59
2022/09/07 01:13:53;;;;;;;5.75;3.40;;;;;;;17.44;100.00;100522.72;691199;28;1215;-60
2022/09/07 01:14:14;;;;;;;5.30;2.92;;;;;;;17.44;100.00;100522.72;690918;28;1270;-59
2022/09/07 01:14:38;;;;;;;5.68;2.83;;;;;;;17.43;100.00;100522.78;690903;28;1334;-60
2022/09/07 01:15:00;;;;;;;5.28;3.10;;;;;;;17.49;100.00;100515.50;691941;28;1526;-59
2022/09/07 01:15:25;;;;;;;5.03;2.58;;;;;;;17.51;100.00;100518.97;690780;28;1305;-59
2022/09/07 01:16:19;;;;;;;5.47;2.38;;;;;;;17.52;100.00;100511.91;693624;28;4425;-60
2022/09/07 01:16:39;;;;;;;5.53;2.55;;;;;;;17.59;100.00;100517.81;696272;28;1391;-60
2022/09/07 01:17:16;;;;;;;5.87;2.60;;;;;;;17.51;100.00;100515.44;697620;28;1463;-60
2022/09/07 01:18:04;;;;;;;6.25;2.60;;;;;;;17.46;100.00;100525.31;696211;28;1415;-59
2022/09/07 01:18:49;;;;;;;5.30;2.70;;;;;;;17.45;100.00;100520.97;696671;28;1142;-60
2022/09/07 01:19:51;;;;;;;5.18;2.40;;;;;;;17.65;100.00;100515.81;695379;28;4894;-60
2022/09/07 01:20:48;;;;;;;5.50;2.20;;;;;;;17.59;100.00;100516.03;695648;28;1134;-60
2022/09/07 01:21:39;;;;;;;6.32;2.35;;;;;;;17.64;100.00;100511.44;697014;28;1254;-61
2022/09/07 01:22:17;;;;;;;5.25;2.65;;;;;;;17.54;100.00;100517.97;694581;28;6000;-61
2022/09/07 01:23:12;;;;;;;5.40;2.70;;;;;;;17.45;100.00;100520.97;697039;28;1194;-61
2022/09/07 01:23:48;;;;;;;5.05;2.60;;;;;;;17.60;100.00;100514.25;696218;28;1343;-60
2022/09/07 01:24:24;;;;;;;4.82;2.60;;;;;;;17.54;100.00;100507.41;695796;28;1043;-60
2022/09/07 01:24:50;;;;;;;4.00;2.40;;;;;;;17.54;100.00;100512.69;694900;28;5183;-60
2022/09/07 01:25:24;;;;;;;5.97;2.85;;;;;;;17.48;100.00;100511.13;696070;28;1297;-61
2022/09/07 01:25:54;;;;;;;5.28;2.50;;;;;;;17.48;100.00;100505.00;695307;28;1168;-60
2022/09/07 01:26:51;;;;;;;5.00;2.40;;;;;;;17.50;100.00;100498.75;692732;28;1353;-60
2022/09/07 01:27:30;;;;;;;5.32;2.50;;;;;;;17.58;100.00;100506.38;693847;28;1590;-61
2022/09/07 01:28:12;;;;;;;4.72;2.40;;;;;;;17.56;100.00;100508.22;694356;28;4452;-60
2022/09/07 01:28:34;;;;;;;3.92;2.30;;;;;;;17.55;100.00;100511.78;697975;28;1241;-60
2022/09/07 01:29:12;;;;;;;5.63;2.60;;;;;;;17.64;100.00;100506.16;696901;28;1252;-61
2022/09/07 01:29:45;;;;;;;4.70;2.28;;;;;;;17.64;100.00;100508.81;697090;28;1190;-60
2022/09/07 01:30:08;;;;;;;4.72;2.05;;;;;;;17.73;100.00;100515.53;695763;28;1114;-62
2022/09/07 01:30:33;;;;;;;4.35;2.00;;;;;;;17.69;100.00;100517.44;696005;28;1348;-60
2022/09/07 01:30:58;;;;;;;3.92;2.10;;;;;;;17.65;100.00;100518.47;694829;28;4247;-61
2022/09/07 01:31:42;;;;;;;4.63;2.00;;;;;;;17.65;100.00;100513.19;695691;28;1322;-60
2022/09/07 01:32:31;;;;;;;5.32;2.10;;;;;;;17.66;100.00;100514.88;691948;28;1278;-61
2022/09/07 01:33:22;;;;;;;4.22;2.08;;;;;;;17.64;100.00;100510.56;693887;28;1902;-61
2022/09/07 01:34:09;;;;;;;4.80;2.10;;;;;;;17.65;100.00;100507.91;693549;28;4493;-61
2022/09/07 01:34:30;;;;;;;4.20;2.30;;;;;;;17.63;100.00;100504.44;696433;28;1228;-62
2022/09/07 01:34:53;;;;;;;4.65;2.30;;;;;;;17.66;100.00;100511.38;697978;28;1297;-62
2022/09/07 01:35:28;;;;;;;4.97;2.45;;;;;;;17.63;100.00;100508.88;696071;28;1276;-63
2022/09/07 01:36:04;;;;;;;4.30;2.20;;;;;;;17.59;100.00;100508.09;696251;28;1190;-61
2022/09/07 01:36:47;;;;;;;4.45;2.22;;;;;;;17.53;100.00;100500.41;696884;28;1137;-62
2022/09/07 01:37:16;;;;;;;4.15;2.10;;;;;;;17.51;100.00;100491.66;694711;28;5942;-63
2022/09/07 01:37:47;;;;;;;5.20;2.20;;;;;;;17.61;100.00;100493.06;697601;28;1256;-62
2022/09/07 01:38:34;;;;;;;4.72;2.30;;;;;;;17.62;100.00;100489.47;697069;28;1209;-63
2022/09/07 01:39:00;;;;;;;5.82;2.60;;;;;;;17.58;100.00;100487.03;690865;28;5084;-63
2022/09/07 01:39:28;;;;;;;6.45;2.50;;;;;;;17.56;100.00;100486.22;688551;28;1662;-62
2022/09/07 01:40:05;;;;;;;4.55;2.50;;;;;;;17.62;100.00;100486.84;689975;28;4349;-61
2022/09/07 01:40:42;;;;;;;4.20;2.47;;;;;;;17.69;100.00;100487.47;695436;28;1126;-62
2022/09/07 01:41:12;;;;;;;4.85;2.70;;;;;;;17.66;100.00;100482.31;692828;28;1583;-62
2022/09/07 01:41:40;;;;;;;5.35;2.75;;;;;;;17.60;100.00;100487.81;688845;28;1561;-61
2022/09/07 01:42:08;;;;;;;5.00;2.60;;;;;;;17.52;100.00;100482.81;690513;28;1317;-63
2022/09/07 01:42:55;;;;;;;5.28;2.70;;;;;;;17.55;100.00;100476.56;685978;28;1243;-61
2022/09/07 01:43:35;;;;;;;4.45;2.60;;;;;;;17.53;100.00;100479.28;690766;28;4922;-63
2022/09/07 01:44:31;;;;;;;5.28;2.58;;;;;;;17.53;100.00;100479.28;691149;28;1242;-62
2022/09/07 01:44:56;;;;;;;4.85;2.60;;;;;;;17.51;100.00;100483.72;693866;28;1258;-63
2022/09/07 01:45:22;;;;;;;5.40;2.67;;;;;;;17.46;100.00;100477.75;693721;28;1259;-63
2022/09/07 01:45:45;;;;;;;5.28;2.80;;;;;;;17.35;100.00;100471.09;692786;28;4794;-63
2022/09/07 01:46:15;;;;;;;4.90;2.90;;;;;;;17.26;100.00;100465.25;695334;28;1250;-63
2022/09/07 01:46:48;;;;;;;5.35;2.90;;;;;;;17.33;100.00;100470.28;689337;28;1331;-62
2022/09/07 01:47:17;;;;;;;5.88;3.00;;;;;;;17.44;100.00;100463.75;689172;28;1317;-63
2022/09/07 01:47:44;;;;;;;6.47;2.83;;;;;;;17.56;100.00;100462.44;689019;28;845;-63
2022/09/07 01:48:14;;;;;;;5.65;3.00;;;;;;;17.52;100.00;100467.81;690204;28;1286;-63
2022/09/07 01:48:38;;;;;;;5.13;2.58;;;;;;;17.53;100.00;100464.25;693906;28;1068;-64
2022/09/07 01:49:28;;;;;;;5.43;2.35;;;;;;;17.57;100.00;100465.03;694989;28;5347;-64
2022/09/07 01:49:57;;;;;;;4.85;2.50;;;;;;;17.52;100.00;100470.47;696589;28;1225;-63
2022/09/07 01:50:23;;;;;;;4.53;2.55;;;;;;;17.52;100.00;100469.59;696032;28;1267;-64
2022/09/07 01:50:52;;;;;;;4.88;2.53;;;;;;;17.44;100.00;100469.88;697129;28;1218;-62
2022/09/07 01:51:12;;;;;;;5.60;2.80;;;;;;;17.45;100.00;100462.81;696154;28;1280;-62
2022/09/07 01:51:39;;;;;;;4.93;2.50;;;;;;;17.47;100.00;100468.91;695853;28;1383;-64
2022/09/07 01:52:06;;;;;;;6.43;2.50;;;;;;;17.40;100.00;100464.78;693119;28;4724;-63
2022/09/07 01:52:43;;;;;;;4.55;2.33;;;;;;;17.48;100.00;100465.34;690593;28;1340;-63
2022/09/07 01:53:06;;;;;;;3.85;2.33;;;;;;;17.49;100.00;100469.72;690648;28;1604;-65
2022/09/07 01:53:40;;;;;;;4.30;2.50;;;;;;;17.38;100.00;100472.75;691666;28;1255;-64
2022/09/07 01:54:10;;;;;;;4.65;2.70;;;;;;;17.36;100.00;100466.66;694697;28;1218;-65
2022/09/07 01:54:36;;;;;;;5.40;2.72;;;;;;;17.33;100.00;100469.41;695774;28;1242;-64
2022/09/07 01:55:04;;;;;;;5.95;2.70;;;;;;;17.33;100.00;100466.75;695078;28;4270;-63
2022/09/07 01:55:38;;;;;;;4.47;2.72;;;;;;;17.32;100.00;100460.63;695017;28;1092;-64
2022/09/07 01:56:10;;;;;;;4.57;2.72;;;;;;;17.20;100.00;100463.72;696638;28;1241;-64
2022/09/07 01:56:37;;;;;;;5.93;2.60;;;;;;;17.17;100.00;100466.47;693543;28;1079;-64
2022/09/07 01:57:06;;;;;;;5.07;2.78;;;;;;;17.24;100.00;100462.69;692226;28;1199;-64
2022/09/07 01:57:37;;;;;;;5.43;2.67;;;;;;;17.21;100.00;100462.81;691955;28;1235;-63
2022/09/07 01:58:07;;;;;;;5.85;2.78;;;;;;;17.25;100.00;100463.53;689236;28;4747;-63
2022/09/07 01:58:27;;;;;;;5.53;2.90;;;;;;;17.26;100.00;100463.47;688405;28;1301;-65
2022/09/07 01:58:53;;;;;;;5.67;2.60;;;;;;;17.41;100.00;100458.56;689822;28;1274;-64
2022/09/07 01:59:26;;;;;;;5.65;2.35;;;;;;;17.51;100.00;100458.19;692208;28;1234;-64
2022/09/07 02:00:06;;;;;;;4.53;2.25;;;;;;;17.51;100.00;100454.66;693511;28;1372;-64
2022/09/07 02:00:37;;;;;;;4.60;2.15;;;;;;;17.40;100.00;100456.84;699197;28;830;-64
2022/09/07 02:01:06;;;;;;;5.00;2.38;;;;;;;17.36;100.00;100454.31;699176;28;4336;-65
2022/09/07 02:01:40;;;;;;;4.63;2.53;;;;;;;17.36;100.00;100453.44;695725;28;1171;-63
2022/09/07 02:02:07;;;;;;;4.88;2.38;;;;;;;17.36;100.00;100454.31;695466;28;1416;-63